Time;durP1;ratioP1;P1;durP2;ratioP2;P2;SDS_P1;SDS_P2;PMS_P1;PMS_P2;Temp;Humidity;BMP_temperature;BMP_pressure;BME280_temperature;BME280_humidity;BME280_pressure;Samples;Min_cycle;Max_cycle;Signal;HPM_P1;HPM_P2
2022/09/12 00:01:16;;;;;;;;;;;;;;;54.37;11.94;101100.19;5115461;28;19916;-60
2022/09/12 00:03:42;;;;;;;;;;;;;;;55.61;10.85;101098.59;5114804;28;19919;-60
2022/09/12 00:06:14;;;;;;;;;;;;;;;55.95;10.25;101101.31;5115305;28;19955;-60
2022/09/12 00:08:40;;;;;;;;;;;;;;;57.27;10.47;101104.66;5115504;28;19919;-61
2022/09/12 00:11:07;;;;;;;;;;;;;;;56.96;9.51;101108.97;5097486;28;20345;-59
2022/09/12 00:13:35;;;;;;;;;;;;;;;57.31;9.22;101102.16;5115523;28;19919;-61
2022/09/12 00:16:01;;;;;;;;;;;;;;;57.77;8.82;101105.75;5115279;28;19920;-60
2022/09/12 00:18:27;;;;;;;;;;;;;;;57.28;10.32;101090.81;5116063;28;19973;-61
2022/09/12 00:20:53;;;;;;;;;;;;;;;56.88;10.16;101089.28;5116159;28;19915;-60
2022/09/12 00:23:20;;;;;;;;;;;;;;;57.50;10.19;101092.97;5116100;28;19930;-60
2022/09/12 00:25:47;;;;;;;;;;;;;;;57.25;9.68;101089.84;5116192;28;19939;-61
2022/09/12 00:28:15;;;;;;;;;;;;;;;56.55;9.93;101099.16;5116283;28;19938;-60
2022/09/12 00:30:46;;;;;;;;;;;;;;;56.55;10.36;101090.41;5115979;28;19947;-61
2022/09/12 00:33:12;;;;;;;;;;;;;;;57.03;9.84;101094.34;5115782;28;19951;-61
2022/09/12 00:35:43;;;;;;;;;;;;;;;58.27;9.79;101093.44;5115752;28;20014;-60
2022/09/12 00:38:10;;;;;;;;;;;;;;;58.32;8.05;101092.41;5115807;28;19946;-61
2022/09/12 00:40:37;;;;;;;;;;;;;;;58.88;8.54;101098.88;5114701;28;20320;-60
2022/09/12 00:43:03;;;;;;;;;;;;;;;58.53;9.40;101101.66;5115197;28;19926;-61
2022/09/12 00:45:29;;;;;;;;;;;;;;;56.88;9.37;101095.13;5115658;28;19916;-60
2022/09/12 00:47:57;;;;;;;;;;;;;;;55.69;10.12;101093.59;5115461;28;19926;-61
2022/09/12 00:50:24;;;;;;;;;;;;;;;55.90;10.35;101084.75;5115547;28;19915;-61
2022/09/12 00:53:03;;;;;;;;;;;;;;;56.13;9.75;101092.81;5097241;28;19924;-61
2022/09/12 00:55:40;;;;;;;;;;;;;;;55.99;10.59;101086.34;5115324;28;20428;-60
2022/09/12 00:58:15;;;;;;;;;;;;;;;55.23;11.09;101086.63;5115356;28;19973;-60
2022/09/12 01:00:42;;;;;;;;;;;;;;;55.23;11.66;101091.69;5115289;28;19942;-60
2022/09/12 01:03:10;;;;;;;;;;;;;;;55.15;10.30;101085.81;5115395;28;19954;-61
2022/09/12 01:05:39;;;;;;;;;;;;;;;54.29;10.97;101090.56;5115264;28;19920;-60
2022/09/12 01:08:05;;;;;;;;;;;;;;;54.08;11.43;101099.25;5115138;28;19915;-60
2022/09/12 01:10:34;;;;;;;;;;;;;;;54.26;11.83;101088.78;5115082;28;20377;-60
2022/09/12 01:13:02;;;;;;;;;;;;;;;53.83;12.11;101092.09;5115195;28;19920;-60
2022/09/12 01:15:29;;;;;;;;;;;;;;;54.29;10.96;101096.38;5115131;28;19927;-61
2022/09/12 01:17:55;;;;;;;;;;;;;;;53.91;12.13;101099.59;5114881;28;19929;-61
2022/09/12 01:20:35;;;;;;;;;;;;;;;53.82;12.10;101090.53;5115219;28;20320;-60
2022/09/12 01:23:20;;;;;;;;;;;;;;;53.88;11.47;101088.31;5115032;28;19926;-59
2022/09/12 01:26:09;;;;;;;;;;;;;;;54.24;11.04;101100.22;5115138;28;19920;-60
2022/09/12 01:28:35;;;;;;;;;;;;;;;53.86;11.16;101096.78;5066984;28;19965;-61
2022/09/12 01:31:12;;;;;;;;;;;;;;;53.36;11.98;101093.56;5114835;28;19963;-61
2022/09/12 01:33:50;;;;;;;;;;;;;;;53.39;12.23;101101.16;5114762;28;19927;-60
2022/09/12 01:36:23;;;;;;;;;;;;;;;53.66;11.92;101095.34;5114652;28;19926;-60
2022/09/12 01:38:58;;;;;;;;;;;;;;;53.67;11.98;101099.81;5114612;28;20377;-60
2022/09/12 01:41:27;;;;;;;;;;;;;;;53.06;12.79;101093.06;5114435;28;19916;-60
2022/09/12 01:44:12;;;;;;;;;;;;;;;52.95;12.14;101090.31;5096580;28;19923;-60
2022/09/12 01:46:49;;;;;;;;;;;;;;;52.88;12.67;101090.97;5114601;28;19946;-60
2022/09/12 01:49:22;;;;;;;;;;;;;;;52.67;12.82;101090.78;5114328;28;20374;-60
2022/09/12 01:52:03;;;;;;;;;;;;;;;52.78;12.15;101093.50;5114473;28;19915;-60
2022/09/12 01:54:39;;;;;;;;;;;;;;;52.10;13.40;101087.94;5114355;28;19920;-61
2022/09/12 01:57:09;;;;;;;;;;;;;;;52.14;13.35;101088.38;5114404;28;19951;-60
2022/09/12 01:59:39;;;;;;;;;;;;;;;52.12;12.98;101091.06;5114170;28;20007;-60
2022/09/12 02:02:12;;;;;;;;;;;;;;;51.90;13.33;101082.66;5114644;28;20281;-60
2022/09/12 02:04:43;;;;;;;;;;;;;;;51.75;13.41;101079.41;5114578;28;19920;-60
2022/09/12 02:07:09;;;;;;;;;;;;;;;51.67;13.49;101085.00;5114363;28;19920;-61
2022/09/12 02:09:38;;;;;;;;;;;;;;;51.46;13.55;101078.91;5114177;28;20336;-61
2022/09/12 02:12:07;;;;;;;;;;;;;;;51.71;13.57;101079.69;5096026;28;19939;-60
2022/09/12 02:14:36;;;;;;;;;;;;;;;51.63;13.55;101078.72;5114164;28;19919;-61
2022/09/12 02:17:06;;;;;;;;;;;;;;;51.07;13.04;101082.22;5113956;28;19972;-60
2022/09/12 02:19:36;;;;;;;;;;;;;;;50.72;13.54;101083.00;5114068;28;19920;-60
2022/09/12 02:22:03;;;;;;;;;;;;;;;50.88;13.72;101081.31;5114195;28;20369;-60
2022/09/12 02:24:36;;;;;;;;;;;;;;;51.04;13.40;101074.59;5113844;28;19943;-60
2022/09/12 02:27:06;;;;;;;;;;;;;;;51.49;13.73;101074.94;5113989;28;19974;-60
2022/09/12 02:29:32;;;;;;;;;;;;;;;51.58;13.01;101077.47;5114051;28;19923;-61
2022/09/12 02:32:01;;;;;;;;;;;;;;;51.44;13.52;101084.47;5113923;28;19953;-61
2022/09/12 02:34:33;;;;;;;;;;;;;;;51.52;13.56;101081.75;5114057;28;19916;-60
2022/09/12 02:37:06;;;;;;;;;;;;;;;51.61;14.02;101084.28;5113911;28;20310;-60
2022/09/12 02:39:33;;;;;;;;;;;;;;;51.58;14.96;101077.47;5116418;28;19920;-61
2022/09/12 02:42:00;;;;;;;;;;;;;;;51.68;15.81;101075.75;5118149;28;19963;-60
2022/09/12 02:44:27;;;;;;;;;;;;;;;51.73;14.96;101082.06;5117795;28;19920;-60
2022/09/12 02:46:56;;;;;;;;;;;;;;;51.63;14.60;101084.53;5117825;28;19959;-60
2022/09/12 02:49:23;;;;;;;;;;;;;;;51.51;13.75;101086.75;5117716;28;19951;-60
2022/09/12 02:51:50;;;;;;;;;;;;;;;51.59;14.10;101084.06;5117805;28;20021;-60
2022/09/12 02:54:17;;;;;;;;;;;;;;;51.63;14.15;101099.00;5117788;28;19920;-60
2022/09/12 02:56:44;;;;;;;;;;;;;;;51.73;15.11;101100.25;5118012;28;19916;-60
2022/09/12 02:59:12;;;;;;;;;;;;;;;51.73;15.79;101108.16;5117819;28;20010;-61
2022/09/12 03:01:41;;;;;;;;;;;;;;;51.51;14.95;101107.03;5117787;28;19915;-60
2022/09/12 03:04:11;;;;;;;;;;;;;;;51.51;15.18;101109.94;5117573;28;20041;-60
2022/09/12 03:06:37;;;;;;;;;;;;;;;51.45;14.39;101117.94;5117681;28;19911;-60
2022/09/12 03:09:19;;;;;;;;;;;;;;;51.51;15.75;101109.16;5117719;28;20006;-60
2022/09/12 03:11:45;;;;;;;;;;;;;;;51.48;14.04;101108.13;5117632;28;19919;-60
2022/09/12 03:14:14;;;;;;;;;;;;;;;51.59;14.99;101113.03;5117320;28;19963;-61
2022/09/12 03:16:50;;;;;;;;;;;;;;;51.49;14.84;101112.59;5117190;28;20319;-59
2022/09/12 03:19:43;;;;;;;;;;;;;;;51.37;14.39;101119.88;5117532;28;19949;-60
2022/09/12 03:22:18;;;;;;;;;;;;;;;51.32;14.18;101117.75;5113007;28;19920;-60
2022/09/12 03:25:04;;;;;;;;;;;;;;;51.22;16.46;101114.44;5117589;28;19919;-61
2022/09/12 03:27:34;;;;;;;;;;;;;;;51.27;16.74;101118.59;5116984;28;19920;-61
2022/09/12 03:30:00;;;;;;;;;;;;;;;51.25;14.87;101118.38;5117073;28;19919;-59
2022/09/12 03:32:44;;;;;;;;;;;;;;;51.15;14.23;101126.63;5098955;28;19971;-60
2022/09/12 03:35:11;;;;;;;;;;;;;;;51.47;15.64;101135.56;5117350;28;19976;-60
2022/09/12 03:37:37;;;;;;;;;;;;;;;51.61;14.46;101136.47;5117082;28;19916;-59
2022/09/12 03:40:04;;;;;;;;;;;;;;;51.71;15.47;101137.69;5116870;28;20290;-61
2022/09/12 03:42:30;;;;;;;;;;;;;;;50.49;15.20;101141.03;5116818;28;19998;-60
2022/09/12 03:44:57;;;;;;;;;;;;;;;51.01;14.90;101136.47;5117131;28;19920;-60
2022/09/12 03:47:23;;;;;;;;;;;;;;;51.29;16.56;101139.13;5116808;28;20342;-59
2022/09/12 03:49:51;;;;;;;;;;;;;;;51.29;15.43;101147.81;5116154;28;19965;-61
2022/09/12 03:52:17;;;;;;;;;;;;;;;51.55;14.69;101150.25;5116424;28;19922;-59
2022/09/12 03:54:43;;;;;;;;;;;;;;;51.63;15.18;101143.28;5116763;28;19920;-61
2022/09/12 03:57:10;;;;;;;;;;;;;;;51.73;14.67;101148.75;5116569;28;19922;-60
2022/09/12 03:59:36;;;;;;;;;;;;;;;51.45;15.76;101149.81;5116382;28;19919;-61
2022/09/12 04:02:03;;;;;;;;;;;;;;;51.13;14.98;101149.53;5116547;28;19939;-60
2022/09/12 04:04:30;;;;;;;;;;;;;;;50.78;16.72;101156.13;5116400;28;19924;-61
2022/09/12 04:06:56;;;;;;;;;;;;;;;50.58;16.84;101153.59;5116456;28;19919;-60
2022/09/12 04:09:22;;;;;;;;;;;;;;;50.76;16.66;101159.56;5116491;28;19945;-60
2022/09/12 04:11:48;;;;;;;;;;;;;;;50.57;17.06;101157.81;5116296;28;19916;-61
2022/09/12 04:14:15;;;;;;;;;;;;;;;51.15;16.20;101163.47;5116147;28;19926;-60
2022/09/12 04:16:41;;;;;;;;;;;;;;;50.81;17.22;101160.81;5116101;28;19968;-60
2022/09/12 04:19:08;;;;;;;;;;;;;;;51.21;16.33;101170.81;5116080;28;19965;-61
2022/09/12 04:21:35;;;;;;;;;;;;;;;51.20;16.55;101162.66;5116198;28;19946;-60
2022/09/12 04:24:01;;;;;;;;;;;;;;;51.00;17.24;101173.34;5116110;28;19985;-60
2022/09/12 04:26:28;;;;;;;;;;;;;;;50.95;16.74;101168.34;5116102;28;19916;-60
2022/09/12 04:28:56;;;;;;;;;;;;;;;50.37;17.40;101174.25;5115931;28;19996;-60
2022/09/12 04:31:23;;;;;;;;;;;;;;;49.96;17.78;101170.44;5115766;28;19919;-60
2022/09/12 04:33:54;;;;;;;;;;;;;;;50.50;17.43;101176.53;5097735;28;19949;-60
2022/09/12 04:36:21;;;;;;;;;;;;;;;49.69;18.16;101172.84;5115638;28;19959;-60
2022/09/12 04:38:48;;;;;;;;;;;;;;;49.87;18.46;101172.28;5115686;28;19919;-60
2022/09/12 04:41:17;;;;;;;;;;;;;;;50.41;17.94;101171.84;5097661;28;19919;-60
2022/09/12 04:43:47;;;;;;;;;;;;;;;50.79;17.71;101177.94;5115697;28;19919;-60
2022/09/12 04:46:14;;;;;;;;;;;;;;;50.82;16.95;101171.13;5115595;28;19927;-60
2022/09/12 04:48:41;;;;;;;;;;;;;;;50.77;16.99;101174.81;5115426;28;19928;-61
2022/09/12 04:51:15;;;;;;;;;;;;;;;50.63;17.43;101175.91;5115591;28;20023;-60
2022/09/12 04:53:42;;;;;;;;;;;;;;;50.69;17.41;101176.72;5115234;28;19923;-60
2022/09/12 04:56:09;;;;;;;;;;;;;;;50.62;17.21;101180.13;5115703;28;20018;-60
2022/09/12 04:58:36;;;;;;;;;;;;;;;50.57;17.35;101180.97;5115260;28;19958;-60
2022/09/12 05:01:07;;;;;;;;;;;;;;;50.49;17.91;101180.75;5115454;28;20011;-61
2022/09/12 05:03:33;;;;;;;;;;;;;;;50.46;18.14;101184.72;5115089;28;20330;-59
2022/09/12 05:06:02;;;;;;;;;;;;;;;50.42;17.81;101182.09;5115390;28;20414;-60
2022/09/12 05:08:29;;;;;;;;;;;;;;;50.44;18.20;101179.44;5115106;28;19958;-60
2022/09/12 05:10:55;;;;;;;;;;;;;;;50.40;17.80;101178.94;5115158;28;19916;-60
2022/09/12 05:13:22;;;;;;;;;;;;;;;50.39;17.82;101182.38;5114915;28;20006;-60
2022/09/12 05:15:55;;;;;;;;;;;;;;;50.35;17.70;101191.34;5114789;28;20338;-60
2022/09/12 05:18:21;;;;;;;;;;;;;;;50.34;17.64;101186.88;5115086;28;19924;-60
2022/09/12 05:20:47;;;;;;;;;;;;;;;50.40;17.24;101186.84;5115056;28;19915;-61
2022/09/12 05:23:13;;;;;;;;;;;;;;;50.32;17.75;101189.50;5114809;28;19927;-61
2022/09/12 05:25:46;;;;;;;;;;;;;;;49.81;18.92;101185.97;5115001;28;19946;-60
2022/09/12 05:28:13;;;;;;;;;;;;;;;49.72;18.63;101189.13;5114850;28;19916;-61
2022/09/12 05:30:39;;;;;;;;;;;;;;;49.93;18.50;101185.94;5114996;28;19962;-61
2022/09/12 05:33:05;;;;;;;;;;;;;;;50.10;17.78;101183.81;5114723;28;19922;-60
2022/09/12 05:35:32;;;;;;;;;;;;;;;49.61;18.65;101177.59;5114700;28;19915;-60
2022/09/12 05:37:58;;;;;;;;;;;;;;;49.30;18.72;101182.34;5114953;28;19997;-60
2022/09/12 05:40:24;;;;;;;;;;;;;;;49.71;18.73;101181.78;5114429;28;19922;-61
2022/09/12 05:42:50;;;;;;;;;;;;;;;50.51;17.52;101183.13;5114405;28;19980;-60
2022/09/12 05:45:16;;;;;;;;;;;;;;;50.72;18.02;101185.13;5096368;28;20010;-59
2022/09/12 05:47:45;;;;;;;;;;;;;;;50.86;17.15;101180.28;5114369;28;20434;-61
2022/09/12 05:50:11;;;;;;;;;;;;;;;50.80;18.06;101185.31;5114428;28;19938;-61
2022/09/12 05:52:37;;;;;;;;;;;;;;;50.26;20.42;101185.81;5114543;28;19994;-61
2022/09/12 05:55:04;;;;;;;;;;;;;;;50.41;19.90;101186.31;5114577;28;19965;-60
2022/09/12 05:57:30;;;;;;;;;;;;;;;50.03;19.24;101178.56;5114238;28;19928;-60
2022/09/12 05:59:57;;;;;;;;;;;;;;;49.77;19.77;101179.69;5114244;28;19962;-61
2022/09/12 06:02:23;;;;;;;;;;;;;;;50.15;19.34;101185.88;5114250;28;20002;-60
2022/09/12 06:04:49;;;;;;;;;;;;;;;50.35;18.47;101188.47;5114216;28;20368;-61
2022/09/12 06:07:15;;;;;;;;;;;;;;;50.18;19.17;101188.50;5114120;28;19948;-60
2022/09/12 06:09:41;;;;;;;;;;;;;;;49.18;18.71;101186.50;5114032;28;19918;-60
2022/09/12 06:12:08;;;;;;;;;;;;;;;48.05;20.06;101181.69;5114155;28;19920;-60
2022/09/12 06:14:34;;;;;;;;;;;;;;;48.73;19.70;101180.66;5113767;28;19912;-61
2022/09/12 06:17:00;;;;;;;;;;;;;;;49.19;18.31;101178.63;5113857;28;19949;-60
2022/09/12 06:19:26;;;;;;;;;;;;;;;48.98;18.50;101178.88;5114213;28;19927;-61
2022/09/12 06:21:53;;;;;;;;;;;;;;;49.29;18.59;101186.53;5114093;28;19915;-60
2022/09/12 06:24:20;;;;;;;;;;;;;;;49.79;18.12;101187.81;5113898;28;19922;-60
2022/09/12 06:26:47;;;;;;;;;;;;;;;49.90;17.73;101185.66;5114001;28;20388;-61
2022/09/12 06:29:14;;;;;;;;;;;;;;;49.74;17.54;101195.19;5113853;28;19950;-61
2022/09/12 06:31:41;;;;;;;;;;;;;;;49.78;18.07;101187.03;5113994;28;19920;-61
2022/09/12 06:34:08;;;;;;;;;;;;;;;49.81;17.71;101193.84;5113702;28;19911;-60
2022/09/12 06:36:39;;;;;;;;;;;;;;;49.74;18.17;101186.53;5114033;28;19935;-60
2022/09/12 06:39:07;;;;;;;;;;;;;;;49.74;17.90;101183.63;5113814;28;19923;-61
2022/09/12 06:41:34;;;;;;;;;;;;;;;49.73;18.15;101187.81;5113694;28;20077;-61
2022/09/12 06:44:00;;;;;;;;;;;;;;;49.55;18.09;101185.44;5095883;28;20382;-60
2022/09/12 06:46:27;;;;;;;;;;;;;;;49.42;18.25;101182.34;5113810;28;19916;-60
2022/09/12 06:48:58;;;;;;;;;;;;;;;49.50;18.92;101180.47;5113888;28;19920;-60
2022/09/12 06:51:25;;;;;;;;;;;;;;;49.49;18.37;101176.03;5113860;28;20046;-60
2022/09/12 06:53:53;;;;;;;;;;;;;;;49.43;18.64;101172.34;5113743;28;19916;-60
2022/09/12 06:56:20;;;;;;;;;;;;;;;49.50;18.25;101189.94;5113725;28;19919;-60
2022/09/12 06:58:48;;;;;;;;;;;;;;;49.41;18.47;101183.66;5113491;28;20377;-60
2022/09/12 07:01:14;;;;;;;;;;;;;;;49.32;18.83;101190.47;5113684;28;20065;-60
2022/09/12 07:03:40;;;;;;;;;;;;;;;49.27;18.80;101182.56;5113621;28;19997;-61
2022/09/12 07:06:11;;;;;;;;;;;;;;;49.31;18.64;101180.22;5113506;28;19927;-59
2022/09/12 07:08:38;;;;;;;;;;;;;;;49.32;18.65;101173.16;5113574;28;19920;-60
2022/09/12 07:11:12;;;;;;;;;;;;;;;49.26;19.15;101176.00;5113752;28;19942;-61
2022/09/12 07:13:42;;;;;;;;;;;;;;;49.29;18.90;101166.31;5113516;28;20000;-61
2022/09/12 07:16:09;;;;;;;;;;;;;;;49.16;19.42;101168.91;5113138;28;20293;-60
2022/09/12 07:18:37;;;;;;;;;;;;;;;49.25;19.30;101165.78;5113571;28;20018;-60
2022/09/12 07:21:04;;;;;;;;;;;;;;;49.42;19.93;101171.56;5113556;28;19920;-60
2022/09/12 07:23:31;;;;;;;;;;;;;;;49.50;18.67;101168.91;5095380;28;19916;-60
2022/09/12 07:25:58;;;;;;;;;;;;;;;49.52;19.12;101169.19;5115086;28;19969;-59
2022/09/12 07:28:29;;;;;;;;;;;;;;;49.42;18.69;101156.34;5117194;28;20061;-60
2022/09/12 07:30:55;;;;;;;;;;;;;;;49.40;18.85;101174.19;5117327;28;19919;-60
2022/09/12 07:33:22;;;;;;;;;;;;;;;49.43;18.79;101175.25;5116835;28;19961;-60
2022/09/12 07:35:49;;;;;;;;;;;;;;;49.40;19.06;101167.63;5117251;28;19919;-60
2022/09/12 07:38:15;;;;;;;;;;;;;;;49.46;18.68;101169.19;5116621;28;19987;-60
2022/09/12 07:40:42;;;;;;;;;;;;;;;49.47;19.27;101162.09;5116888;28;19928;-61
2022/09/12 07:43:09;;;;;;;;;;;;;;;49.56;19.82;101158.16;5116706;28;20358;-60
2022/09/12 07:45:35;;;;;;;;;;;;;;;49.52;19.19;101158.41;5116686;28;19920;-60
2022/09/12 07:48:02;;;;;;;;;;;;;;;49.67;18.95;101158.16;5098535;28;20384;-60
2022/09/12 07:50:28;;;;;;;;;;;;;;;49.64;18.72;101156.28;5116609;28;19924;-61
2022/09/12 07:52:54;;;;;;;;;;;;;;;49.69;19.00;101158.41;5116682;28;20395;-61
2022/09/12 07:55:21;;;;;;;;;;;;;;;49.55;18.66;101148.69;5116556;28;19997;-60
2022/09/12 07:57:51;;;;;;;;;;;;;;;49.20;19.39;101149.25;5116581;28;20285;-60
2022/09/12 08:00:18;;;;;;;;;;;;;;;49.23;19.29;101142.41;5116434;28;20008;-60
2022/09/12 08:02:44;;;;;;;;;;;;;;;49.43;18.91;101143.47;5116332;28;19911;-60
2022/09/12 08:05:10;;;;;;;;;;;;;;;49.43;18.65;101149.25;5116399;28;19981;-60
2022/09/12 08:07:36;;;;;;;;;;;;;;;49.16;18.48;101148.69;5116406;28;19919;-60
2022/09/12 08:10:05;;;;;;;;;;;;;;;49.31;18.93;101148.47;5116276;28;19947;-60
2022/09/12 08:12:33;;;;;;;;;;;;;;;49.39;17.97;101142.97;5116203;28;19922;-59
2022/09/12 08:14:59;;;;;;;;;;;;;;;49.48;18.10;101145.56;5116178;28;19923;-61
2022/09/12 08:17:25;;;;;;;;;;;;;;;49.51;17.95;101139.50;5116326;28;20365;-60
2022/09/12 08:19:52;;;;;;;;;;;;;;;49.48;17.96;101139.78;5115921;28;19973;-60
2022/09/12 08:22:20;;;;;;;;;;;;;;;49.49;18.28;101142.13;5116185;28;19947;-60
2022/09/12 08:24:47;;;;;;;;;;;;;;;49.51;18.59;101141.59;5115873;28;20334;-60
2022/09/12 08:27:14;;;;;;;;;;;;;;;49.36;17.95;101130.31;5116249;28;19926;-60
2022/09/12 08:29:40;;;;;;;;;;;;;;;49.16;18.25;101139.25;5115859;28;19919;-60
2022/09/12 08:32:07;;;;;;;;;;;;;;;49.33;18.12;101133.50;5115911;28;19968;-60
2022/09/12 08:34:33;;;;;;;;;;;;;;;49.42;17.38;101130.34;5115877;28;20392;-60
2022/09/12 08:36:59;;;;;;;;;;;;;;;49.50;18.20;101131.34;5115435;28;19955;-60
2022/09/12 08:39:25;;;;;;;;;;;;;;;49.18;18.12;101122.97;5115594;28;19916;-61
2022/09/12 08:42:01;;;;;;;;;;;;;;;49.23;18.10;101133.75;5115844;28;19923;-60
2022/09/12 08:44:43;;;;;;;;;;;;;;;48.90;17.92;101131.63;5115635;28;19993;-61
2022/09/12 08:47:20;;;;;;;;;;;;;;;49.13;19.22;101120.09;5115607;28;19927;-60
2022/09/12 08:49:46;;;;;;;;;;;;;;;49.34;18.17;101117.72;5115415;28;19920;-61
2022/09/12 08:52:15;;;;;;;;;;;;;;;49.25;18.50;101108.00;5115524;28;20297;-60
2022/09/12 08:54:43;;;;;;;;;;;;;;;49.10;17.68;101110.38;5115344;28;19919;-60
2022/09/12 08:57:10;;;;;;;;;;;;;;;48.92;17.98;101102.22;5115355;28;19920;-60
2022/09/12 08:59:44;;;;;;;;;;;;;;;48.85;17.90;101108.53;5115305;28;19942;-60
2022/09/12 09:02:31;;;;;;;;;;;;;;;48.87;18.35;101108.78;5115403;28;20369;-60
2022/09/12 09:05:00;;;;;;;;;;;;;;;48.63;18.63;101104.28;5096822;28;20300;-60
2022/09/12 09:07:44;;;;;;;;;;;;;;;48.57;18.58;101109.25;5115212;28;19919;-61
2022/09/12 09:10:20;;;;;;;;;;;;;;;48.69;18.14;101110.88;5115111;28;19963;-60
2022/09/12 09:13:07;;;;;;;;;;;;;;;48.91;18.44;101113.00;5114883;28;20014;-60
2022/09/12 09:15:40;;;;;;;;;;;;;;;48.70;18.85;101115.34;5114772;28;20385;-61
2022/09/12 09:18:07;;;;;;;;;;;;;;;48.69;18.22;101115.88;5114807;28;20437;-60
2022/09/12 09:20:42;;;;;;;;;;;;;;;48.65;18.35;101121.09;5114925;28;20014;-60
2022/09/12 09:23:16;;;;;;;;;;;;;;;48.82;18.39;101119.00;5114848;28;19916;-61
2022/09/12 09:25:42;;;;;;;;;;;;;;;48.91;18.05;101121.66;5114859;28;19919;-60
2022/09/12 09:28:18;;;;;;;;;;;;;;;49.01;19.19;101122.97;5114547;28;19919;-59
2022/09/12 09:30:44;;;;;;;;;;;;;;;49.00;18.09;101127.19;5114988;28;19924;-61
2022/09/12 09:33:21;;;;;;;;;;;;;;;48.99;18.69;101128.50;5114595;28;19912;-61
2022/09/12 09:36:08;;;;;;;;;;;;;;;48.89;18.36;101124.28;5114552;28;19947;-60
2022/09/12 09:38:47;;;;;;;;;;;;;;;48.88;18.40;101116.94;5097429;28;20355;-61
2022/09/12 09:41:19;;;;;;;;;;;;;;;48.49;19.10;101128.41;5114638;28;19920;-60
2022/09/12 09:43:46;;;;;;;;;;;;;;;48.38;19.17;101114.72;5114473;28;19920;-60
2022/09/12 09:46:12;;;;;;;;;;;;;;;48.35;19.28;101115.75;5114254;28;20275;-60
2022/09/12 09:48:47;;;;;;;;;;;;;;;48.58;18.71;101110.03;5113804;28;19920;-60
2022/09/12 09:51:15;;;;;;;;;;;;;;;48.83;18.64;101123.47;5114257;28;19927;-60
2022/09/12 09:53:47;;;;;;;;;;;;;;;48.95;18.88;101127.97;5114172;28;19927;-61
2022/09/12 09:56:27;;;;;;;;;;;;;;;48.84;18.38;101121.38;5114382;28;19955;-60
2022/09/12 09:58:53;;;;;;;;;;;;;;;48.94;18.93;101119.84;5114200;28;19920;-60
2022/09/12 10:01:20;;;;;;;;;;;;;;;48.95;18.88;101115.63;5114416;28;19920;-61
2022/09/12 10:03:50;;;;;;;;;;;;;;;48.93;19.21;101113.25;5114085;28;19926;-59
2022/09/12 10:06:22;;;;;;;;;;;;;;;48.95;19.22;101115.63;5109076;28;19988;-60
2022/09/12 10:08:49;;;;;;;;;;;;;;;48.93;19.05;101106.69;5093712;28;19929;-60
2022/09/12 10:11:15;;;;;;;;;;;;;;;48.85;19.55;101115.09;5090671;28;19923;-60
2022/09/12 10:13:53;;;;;;;;;;;;;;;48.88;19.13;101110.38;5093795;28;19931;-60
2022/09/12 10:16:21;;;;;;;;;;;;;;;48.76;19.28;101100.13;5093399;28;20335;-60
2022/09/12 10:18:51;;;;;;;;;;;;;;;48.94;19.22;101102.50;5092961;28;20204;-60
2022/09/12 10:21:17;;;;;;;;;;;;;;;48.87;19.34;101108.78;5093691;28;20398;-61
2022/09/12 10:23:44;;;;;;;;;;;;;;;48.73;19.05;101099.84;5093538;28;19929;-61
2022/09/12 10:26:15;;;;;;;;;;;;;;;48.82;18.67;101109.56;5093449;28;19930;-60
2022/09/12 10:28:46;;;;;;;;;;;;;;;48.72;19.58;101104.06;5093503;28;19924;-60
2022/09/12 10:31:14;;;;;;;;;;;;;;;48.88;19.66;101104.59;5093484;28;20385;-60
2022/09/12 10:33:46;;;;;;;;;;;;;;;48.92;19.13;101105.91;5093552;28;20014;-61
2022/09/12 10:36:13;;;;;;;;;;;;;;;48.86;19.26;101113.00;5093356;28;19973;-59
2022/09/12 10:38:48;;;;;;;;;;;;;;;48.86;19.66;101107.22;5075553;28;20324;-60
2022/09/12 10:41:14;;;;;;;;;;;;;;;48.70;19.72;101105.91;5093584;28;19924;-60
2022/09/12 10:43:41;;;;;;;;;;;;;;;48.76;19.79;101097.22;5093369;28;20378;-60
2022/09/12 10:46:16;;;;;;;;;;;;;;;48.80;19.36;101110.09;5093559;28;19920;-60
2022/09/12 10:48:44;;;;;;;;;;;;;;;48.88;19.62;101113.25;5093514;28;19920;-60
2022/09/12 10:51:25;;;;;;;;;;;;;;;48.84;19.42;101118.47;5093882;28;20002;-61
2022/09/12 10:53:53;;;;;;;;;;;;;;;48.74;19.38;101123.72;5093623;28;19924;-61
2022/09/12 10:56:29;;;;;;;;;;;;;;;48.58;19.73;101116.63;5093379;28;20439;-60
2022/09/12 10:59:05;;;;;;;;;;;;;;;48.65;20.11;101124.75;5093260;28;19920;-61
2022/09/12 11:01:31;;;;;;;;;;;;;;;48.70;19.61;101126.09;5097139;28;19920;-61
2022/09/12 11:04:13;;;;;;;;;;;;;;;48.66;19.95;101123.47;5097417;28;20425;-62
2022/09/12 11:06:47;;;;;;;;;;;;;;;48.68;19.85;101126.63;5097053;28;20006;-60
2022/09/12 11:09:14;;;;;;;;;;;;;;;48.69;20.01;101138.94;5097152;28;19920;-60
2022/09/12 11:11:55;;;;;;;;;;;;;;;48.60;20.49;101131.31;5097257;28;20404;-60
2022/09/12 11:14:25;;;;;;;;;;;;;;;48.55;20.21;101123.41;5096989;28;20401;-61
2022/09/12 11:16:57;;;;;;;;;;;;;;;48.36;20.53;101131.75;5096686;28;20085;-62
2022/09/12 11:19:29;;;;;;;;;;;;;;;48.62;20.30;101134.47;5096952;28;19924;-61
2022/09/12 11:22:07;;;;;;;;;;;;;;;48.55;20.62;101137.84;5097010;28;19923;-60
2022/09/12 11:25:01;;;;;;;;;;;;;;;48.42;20.33;101137.53;5096995;28;20363;-60
2022/09/12 11:27:27;;;;;;;;;;;;;;;48.54;20.38;101139.16;5096908;28;19923;-61
2022/09/12 11:29:59;;;;;;;;;;;;;;;48.55;20.42;101139.94;5096749;28;19916;-60
2022/09/12 11:32:28;;;;;;;;;;;;;;;48.66;20.27;101140.78;5096550;28;19924;-60
2022/09/12 11:35:24;;;;;;;;;;;;;;;48.63;20.23;101146.78;5096549;28;19912;-61
2022/09/12 11:38:13;;;;;;;;;;;;;;;48.55;19.90;101145.72;5075488;28;19927;-61
2022/09/12 11:40:55;;;;;;;;;;;;;;;48.44;20.87;101155.09;5049648;28;19926;-62
2022/09/12 11:43:28;;;;;;;;;;;;;;;48.33;21.01;101155.09;5096410;28;19920;-61
2022/09/12 11:45:56;;;;;;;;;;;;;;;48.29;21.00;101157.41;5096404;28;19934;-61
2022/09/12 11:48:33;;;;;;;;;;;;;;;48.49;20.09;101151.47;5096335;28;19916;-60
2022/09/12 11:51:02;;;;;;;;;;;;;;;48.53;20.25;101163.53;5096366;28;19920;-61
2022/09/12 11:53:33;;;;;;;;;;;;;;;48.33;20.88;101163.75;5096054;28;19916;-60
2022/09/12 11:56:11;;;;;;;;;;;;;;;48.50;20.40;101167.47;5096332;28;19920;-61
2022/09/12 11:58:39;;;;;;;;;;;;;;;48.63;20.29;101167.00;5096265;28;20236;-61
2022/09/12 12:01:26;;;;;;;;;;;;;;;48.68;19.95;101167.03;5096349;28;19939;-61
2022/09/12 12:03:54;;;;;;;;;;;;;;;48.69;19.92;101168.59;5096073;28;20011;-61
2022/09/12 12:06:24;;;;;;;;;;;;;;;48.54;20.43;101168.00;5095950;28;20346;-61
2022/09/12 12:08:51;;;;;;;;;;;;;;;48.29;20.90;101180.50;5096182;28;19959;-61
2022/09/12 12:11:26;;;;;;;;;;;;;;;48.14;20.98;101181.47;5095306;28;20016;-61
2022/09/12 12:13:56;;;;;;;;;;;;;;;48.25;20.94;101183.63;5095797;28;19924;-62
2022/09/12 12:16:27;;;;;;;;;;;;;;;48.54;20.37;101185.31;5095640;28;20336;-61
2022/09/12 12:18:58;;;;;;;;;;;;;;;48.53;20.56;101195.28;5096174;28;20374;-62
2022/09/12 12:21:42;;;;;;;;;;;;;;;48.45;20.15;101202.84;5096048;28;20313;-62
2022/09/12 12:24:08;;;;;;;;;;;;;;;48.08;20.13;101197.94;5095640;28;19920;-61
2022/09/12 12:26:41;;;;;;;;;;;;;;;48.04;20.02;101197.41;5095871;28;19923;-61
2022/09/12 12:29:10;;;;;;;;;;;;;;;48.37;19.62;101193.13;5096144;28;19920;-60
2022/09/12 12:31:54;;;;;;;;;;;;;;;48.44;19.94;101195.50;5095518;28;19923;-62
2022/09/12 12:34:31;;;;;;;;;;;;;;;48.12;19.87;101194.78;5095570;28;19920;-61
2022/09/12 12:36:58;;;;;;;;;;;;;;;48.27;20.14;101201.19;5095577;28;20304;-61
2022/09/12 12:39:30;;;;;;;;;;;;;;;48.20;19.98;101201.66;5095319;28;19923;-62
2022/09/12 12:41:58;;;;;;;;;;;;;;;48.21;20.33;101197.47;5095372;28;19920;-61
2022/09/12 12:44:42;;;;;;;;;;;;;;;48.35;19.88;101198.63;5095418;28;19920;-61
2022/09/12 12:47:24;;;;;;;;;;;;;;;48.30;20.18;101210.91;5095129;28;20297;-61
2022/09/12 12:50:01;;;;;;;;;;;;;;;48.47;19.75;101205.19;5095150;28;20019;-61
2022/09/12 12:52:30;;;;;;;;;;;;;;;47.72;20.66;101213.16;5095025;28;19926;-61